Cankton, Louisiana
Current Conditions -  °F | °C
As of 12:15 AM on Monday 22 Dec 2014 (Local Time) from KOPL Reporting Station
Haze Haze  
Wind Chill: 49°   Ceiling: 700
Heat Index: 49°   Visibility: 4mi
Dew Point: 48°   Wind: 0mph
Humidity: 99%   Direction: NA
Pressure: 29.92"   Gusts: NA
Location:  30.3753°N, 92.0944°W
Report Text: KOPL 220615Z AUTO 00000KT 4SM BR SCT002 BKN007 09/09 A2992 RMK AO2 T00920090
Loading
Personal Weather Stations






























Interactive Weather Map New forecast layout! Learn more

10-Day Weather Forecast

Advertisements
Track Severe Weather on mobile